SEASEATTLE-TACOMA INTL
METARs for airports near SEA, sorted by distance:
N 0 nm 432' KSEA 201053Z 22004KT 3SM -RA BR FEW007 OVC023 15/14 A3010
NE 4 nm 32' KRNT 201053Z 17003KT 9SM BKN010 OVC035 16/14 A3009
N 4 nm 21' KBFI 201053Z 00000KT 10SM FEW007 OVC034 16/14 A3009
SW 15 nm 294' KTIW 201053Z 18003KT 10SM SCT032 13/12 A3010
W 18 nm 444' KPWT 201109Z 00000KT 10SM FEW007 SCT013 OVC023 14/14 A3010
S 19 nm 322' KTCM 201058Z 22003KT 10SM OVC006 15/14 A3010
S 20 nm 537' KPLU 201115Z 00000KT 10SM FEW005 OVC013 15/15 A3010
SW 24 nm 301' KGRF 201058Z 00000KT 10SM FEW005 SCT014 OVC026 15/15 A3009
N 27 nm 607' KPAE 201114Z 00000KT 3SM -RA BR OVC004 14/14 A3011
W 36 nm 272' KSHN 201053Z 26004KT 10SM OVC012 14/14 A3008
SW 37 nm 207' KOLM 201054Z 19003KT 10SM OVC028 15/14 A3010
N 43 nm 141' KAWO 201103Z 02009KT 10SM FEW014 BKN025 OVC030 14/13 A3010
SW 53 nm 177' KCLS 201115Z 18003KT 10SM FEW011 OVC030 16/16 A3011
N 55 nm 47' KNUW 201056Z 22007KT 10SM SCT040 BKN080 15/12 A3012
NW 60 nm 13' KNOW 201115Z 22004KT 10SM CLR 10/10 A3009
N 61 nm 145' KBVS 201115Z 14003KT 10SM BKN013 OVC018 14/14 A3009
NW 62 nm 291' KCLM 201053Z 24003KT 10SM CLR 11/10 A3010
NW 70 nm 112' KFHR 201112Z 00000KT 1/2SM FG VV002 11/10 A3009
SW 72 nm 17' KHQM 201114Z 00000KT 1 1/2SM BR OVC003 14/13 A3010
E 76 nm 1763' KELN 201053Z 29008KT 10SM CLR 13/09 A3005
N 79 nm 34' KORS 201055Z 17005KT 10SM CLR 13/12 A3006
N 81 nm 171' KBLI 201053Z 17005KT 10SM FEW013 14/12 A3007
S 83 nm 20' KKLS 201056Z 00000KT SCT013 OVC024 16/14 A3011
NW 84 nm 64' CYYJ 201100Z 24006KT 20SM SKC 12/11 A3006
E 85 nm 1248' KEAT 201055Z 28003KT 10SM CLR 13/09 A3001
SE 89 nm 1098' KYKM 201053Z 27007KT 10SM CLR 09/06 A3005
W 95 nm 193' KUIL 201117Z 00000KT 2 1/2SM BR SCT011 12/12 A3009
TAFs for airports near SEA, sorted by distance:
N 0 nm 432' KSEA TAF KSEA 201120Z 2012/2118 22004KT 6SM BR VCSH SCT012 OVC025
  TEMPO 2013/2017 3SM -SHRA BR BKN012
  FM201700 21004KT P6SM OVC020
  FM202100 25005KT P6SM BKN040
  FM210400 36005KT P6SM SCT050 SCT200
  FM211300 02003KT P6SM BKN009
N 4 nm 21' KBFI TAF KBFI 201120Z 2012/2112 00000KT P6SM VCSH SCT015 OVC030
  TEMPO 2013/2017 5SM -SHRA BR BKN015
  FM201700 19003KT P6SM OVC025
  FM202100 24005KT P6SM BKN045
  FM210400 31003KT P6SM SCT050 SCT200
W 18 nm 444' KPWT TAF KPWT 201120Z 2012/2112 00000KT P6SM SCT007 BKN013 OVC021
  FM201800 19004KT P6SM BKN018 OVC030
  FM202100 19005KT P6SM SCT025 BKN040
  FM210300 04004KT P6SM SCT030 SCT200
  FM211000 03003KT P6SM BKN007
S 19 nm 322' KTCM TAF KTCM 200500Z 2005/2111 21006KT 9999 BKN015 OVC025 QNH3009INS
  BECMG 2011/2012 22004KT 9999 OVC008 QNH3010INS
  BECMG 2015/2016 22006KT 9999 OVC015 QNH3011INS
  BECMG 2018/2019 26010KT 9999 BKN020 OVC040 QNH3002INS
  BECMG 2021/2022 29009KT 9999 SCT020 BKN035 QNH2998INS TX21/2023Z TN11/2013Z
SW 24 nm 301' KGRF TAF KGRF 200500Z 2005/2111 18006KT 9999 FEW023 QNH3008INS
  BECMG 2006/2007 21010KT 8000 BR FEW012 BKN020 QNH3008INS
  BECMG 2014/2015 23006KT 8000 -RA BR SCT005 OVC010 QNH3009INS
  BECMG 2105/2106 03005KT 9999 NSW SCT020 QNH2998INS
  BECMG 2109/2110 VRB06KT 9999 VCSH BKN030 QNH2995INS TX20/2023Z TN14/2014Z
N 27 nm 607' KPAE TAF KPAE 201120Z 2012/2112 VRB03KT 5SM BR SCT006 OVC022
  TEMPO 2012/2016 1SM -SHRA BR BKN004 OVC012
  FM201600 19004KT 6SM BR OVC018
  FM202100 24005KT P6SM BKN035
  FM210300 36004KT P6SM SCT040 SCT200
SW 37 nm 207' KOLM TAF KOLM 201120Z 2012/2112 19003KT P6SM OVC025
  FM202000 30004KT P6SM SCT025 BKN040
  FM210300 01004KT P6SM SCT040 SCT200
  FM210900 00000KT 1/2SM FG VV001
N 55 nm 47' KNUW TAF KNUW 2007/2107 VRB06KT 9999 BKN050 BKN100 QNH3010INS
  TEMPO 2007/2013 1600 BR BKN003
  FM201300 VRB06KT 1600 BR BKN003 QNH3012INS
  TEMPO 2013/2019 0800 FG OVC003
  FM202000 VRB06KT FEW005 SCT010 BKN050 QNH3009INS T11/2012Z T21/2023Z FS30162
NW 62 nm 291' KCLM TAF KCLM 201120Z 2012/2112 24003KT P6SM SCT010 SCT050
  FM202100 32005KT P6SM BKN040 BKN070
  FM210300 29006KT P6SM SCT040 SCT200
SW 72 nm 17' KHQM TAF KHQM 201120Z 2012/2112 00000KT 3SM BR OVC003
  FM201800 VRB04KT P6SM OVC012
  FM202100 23008KT P6SM BKN035
  FM210400 27006KT P6SM BKN040 BKN120
N 81 nm 171' KBLI TAF KBLI 201120Z 2012/2112 17008KT P6SM SCT015 BKN060
  TEMPO 2012/2016 BKN015
  FM202100 18007KT P6SM BKN050
  FM210300 17005KT P6SM SCT050 SCT200
E 85 nm 1248' KEAT TAF KEAT 200520Z 2006/2106 30012KT P6SM SKC
  FM200800 31007KT P6SM SKC
  FM201800 29006KT P6SM SCT050
  FM202100 19005KT P6SM SCT050
SE 89 nm 1098' KYKM TAF KYKM 201120Z 2012/2112 29005KT P6SM SKC
  FM201700 VRB05KT P6SM SKC
  FM210400 31005KT P6SM SCT250

Shortcut to this page: http://wxbay.com.

Data may contain errors.